sensor_id;sensor_type;location;lat;lon;timestamp;P1;durP1;ratioP1;P2;durP2;ratioP2
20857;SDS011;10589;53.636;10.012;2023-06-14T03:45:59;8.73;;;5.27;;
20857;SDS011;10589;53.636;10.012;2023-06-14T03:48:25;10.40;;;5.40;;
20857;SDS011;10589;53.636;10.012;2023-06-14T03:50:50;8.67;;;4.83;;
20857;SDS011;10589;53.636;10.012;2023-06-14T03:53:16;7.77;;;4.63;;
20857;SDS011;10589;53.636;10.012;2023-06-14T03:55:42;7.43;;;4.83;;
20857;SDS011;10589;53.636;10.012;2023-06-14T03:58:07;8.30;;;4.90;;
20857;SDS011;10589;53.636;10.012;2023-06-14T04:00:33;8.83;;;4.77;;
20857;SDS011;10589;53.636;10.012;2023-06-14T04:02:58;6.53;;;4.40;;
20857;SDS011;10589;53.636;10.012;2023-06-14T04:05:24;12.07;;;4.60;;
20857;SDS011;10589;53.636;10.012;2023-06-14T04:07:51;8.77;;;4.40;;
20857;SDS011;10589;53.636;10.012;2023-06-14T04:10:17;8.03;;;4.67;;
20857;SDS011;10589;53.636;10.012;2023-06-14T04:12:42;6.87;;;4.63;;
20857;SDS011;10589;53.636;10.012;2023-06-14T04:15:08;8.77;;;4.20;;
20857;SDS011;10589;53.636;10.012;2023-06-14T04:17:35;7.60;;;3.90;;
20857;SDS011;10589;53.636;10.012;2023-06-14T04:20:02;7.37;;;3.77;;
20857;SDS011;10589;53.636;10.012;2023-06-14T04:22:31;6.47;;;3.90;;
20857;SDS011;10589;53.636;10.012;2023-06-14T04:24:59;8.70;;;3.83;;
20857;SDS011;10589;53.636;10.012;2023-06-14T04:27:25;7.47;;;4.40;;
20857;SDS011;10589;53.636;10.012;2023-06-14T04:29:52;8.33;;;4.37;;
20857;SDS011;10589;53.636;10.012;2023-06-14T04:32:27;8.13;;;4.03;;
20857;SDS011;10589;53.636;10.012;2023-06-14T04:34:57;8.00;;;3.87;;
20857;SDS011;10589;53.636;10.012;2023-06-14T04:37:24;10.23;;;3.93;;
20857;SDS011;10589;53.636;10.012;2023-06-14T04:39:53;7.17;;;3.73;;
20857;SDS011;10589;53.636;10.012;2023-06-14T04:42:20;6.30;;;3.73;;
20857;SDS011;10589;53.636;10.012;2023-06-14T04:44:50;12.50;;;3.80;;
20857;SDS011;10589;53.636;10.012;2023-06-14T04:47:16;7.10;;;3.83;;
20857;SDS011;10589;53.636;10.012;2023-06-14T04:49:42;6.97;;;3.93;;
20857;SDS011;10589;53.636;10.012;2023-06-14T04:52:08;5.57;;;3.77;;
20857;SDS011;10589;53.636;10.012;2023-06-14T04:54:35;8.63;;;4.20;;
20857;SDS011;10589;53.636;10.012;2023-06-14T04:57:07;8.17;;;4.27;;
20857;SDS011;10589;53.636;10.012;2023-06-14T04:59:33;6.43;;;4.07;;
20857;SDS011;10589;53.636;10.012;2023-06-14T05:02:00;9.93;;;3.70;;
20857;SDS011;10589;53.636;10.012;2023-06-14T05:04:26;10.80;;;4.13;;
20857;SDS011;10589;53.636;10.012;2023-06-14T05:06:53;6.83;;;4.07;;
20857;SDS011;10589;53.636;10.012;2023-06-14T05:09:19;7.30;;;3.73;;
20857;SDS011;10589;53.636;10.012;2023-06-14T05:11:46;5.67;;;3.63;;
20857;SDS011;10589;53.636;10.012;2023-06-14T05:14:12;6.70;;;3.60;;
20857;SDS011;10589;53.636;10.012;2023-06-14T05:16:39;7.37;;;3.57;;
20857;SDS011;10589;53.636;10.012;2023-06-14T05:19:05;12.43;;;3.77;;
20857;SDS011;10589;53.636;10.012;2023-06-14T05:21:32;5.87;;;3.20;;
20857;SDS011;10589;53.636;10.012;2023-06-14T05:24:01;6.95;;;3.65;;
20857;SDS011;10589;53.636;10.012;2023-06-14T05:26:26;5.60;;;3.50;;
20857;SDS011;10589;53.636;10.012;2023-06-14T05:28:55;6.37;;;3.50;;
20857;SDS011;10589;53.636;10.012;2023-06-14T05:31:22;6.47;;;3.70;;
20857;SDS011;10589;53.636;10.012;2023-06-14T05:33:48;7.60;;;3.67;;
20857;SDS011;10589;53.636;10.012;2023-06-14T05:36:15;13.50;;;4.07;;
20857;SDS011;10589;53.636;10.012;2023-06-14T05:38:40;8.35;;;3.58;;
20857;SDS011;10589;53.636;10.012;2023-06-14T05:41:06;7.70;;;3.90;;
20857;SDS011;10589;53.636;10.012;2023-06-14T05:43:31;9.38;;;3.65;;
20857;SDS011;10589;53.636;10.012;2023-06-14T05:45:57;5.72;;;3.47;;
20857;SDS011;10589;53.636;10.012;2023-06-14T05:48:23;5.47;;;3.40;;
20857;SDS011;10589;53.636;10.012;2023-06-14T05:50:48;6.40;;;3.58;;
20857;SDS011;10589;53.636;10.012;2023-06-14T05:53:14;8.40;;;3.40;;
20857;SDS011;10589;53.636;10.012;2023-06-14T05:55:40;14.38;;;3.53;;
20857;SDS011;10589;53.636;10.012;2023-06-14T05:58:05;7.10;;;3.40;;
20857;SDS011;10589;53.636;10.012;2023-06-14T06:00:31;10.43;;;3.13;;
20857;SDS011;10589;53.636;10.012;2023-06-14T06:02:56;7.28;;;3.03;;
20857;SDS011;10589;53.636;10.012;2023-06-14T06:05:22;7.50;;;3.30;;
20857;SDS011;10589;53.636;10.012;2023-06-14T06:07:48;5.93;;;3.05;;
20857;SDS011;10589;53.636;10.012;2023-06-14T06:10:14;6.25;;;3.05;;
20857;SDS011;10589;53.636;10.012;2023-06-14T06:12:41;6.13;;;3.47;;
20857;SDS011;10589;53.636;10.012;2023-06-14T06:15:07;4.53;;;2.80;;
20857;SDS011;10589;53.636;10.012;2023-06-14T06:17:37;7.97;;;3.10;;
20857;SDS011;10589;53.636;10.012;2023-06-14T06:20:03;6.13;;;2.83;;
20857;SDS011;10589;53.636;10.012;2023-06-14T06:22:31;4.78;;;2.50;;
20857;SDS011;10589;53.636;10.012;2023-06-14T06:24:56;5.90;;;3.17;;
20857;SDS011;10589;53.636;10.012;2023-06-14T06:27:22;7.53;;;3.22;;
20857;SDS011;10589;53.636;10.012;2023-06-14T06:29:47;5.40;;;2.47;;
20857;SDS011;10589;53.636;10.012;2023-06-14T06:32:14;6.75;;;2.90;;
20857;SDS011;10589;53.636;10.012;2023-06-14T06:34:40;6.00;;;2.45;;
20857;SDS011;10589;53.636;10.012;2023-06-14T06:37:06;3.45;;;2.20;;
20857;SDS011;10589;53.636;10.012;2023-06-14T06:39:32;6.20;;;2.40;;
20857;SDS011;10589;53.636;10.012;2023-06-14T06:41:58;5.43;;;2.97;;
20857;SDS011;10589;53.636;10.012;2023-06-14T06:44:23;5.70;;;2.70;;
20857;SDS011;10589;53.636;10.012;2023-06-14T06:46:49;3.17;;;2.30;;
20857;SDS011;10589;53.636;10.012;2023-06-14T06:49:15;3.97;;;2.05;;
20857;SDS011;10589;53.636;10.012;2023-06-14T06:51:41;5.45;;;2.67;;
20857;SDS011;10589;53.636;10.012;2023-06-14T06:54:07;4.93;;;2.30;;
20857;SDS011;10589;53.636;10.012;2023-06-14T06:56:34;5.28;;;2.55;;
20857;SDS011;10589;53.636;10.012;2023-06-14T06:59:00;3.22;;;2.00;;
20857;SDS011;10589;53.636;10.012;2023-06-14T07:01:25;5.88;;;2.15;;
20857;SDS011;10589;53.636;10.012;2023-06-14T07:03:54;4.30;;;2.08;;
20857;SDS011;10589;53.636;10.012;2023-06-14T07:06:20;5.70;;;2.25;;
20857;SDS011;10589;53.636;10.012;2023-06-14T07:08:46;3.72;;;2.17;;
20857;SDS011;10589;53.636;10.012;2023-06-14T07:11:13;1.95;;;1.50;;
20857;SDS011;10589;53.636;10.012;2023-06-14T07:13:39;3.95;;;1.75;;
20857;SDS011;10589;53.636;10.012;2023-06-14T07:16:05;4.97;;;1.98;;
20857;SDS011;10589;53.636;10.012;2023-06-14T07:18:31;4.15;;;1.83;;
20857;SDS011;10589;53.636;10.012;2023-06-14T07:20:56;3.55;;;2.13;;
20857;SDS011;10589;53.636;10.012;2023-06-14T07:23:22;5.78;;;2.03;;
20857;SDS011;10589;53.636;10.012;2023-06-14T07:25:48;4.15;;;1.65;;
20857;SDS011;10589;53.636;10.012;2023-06-14T07:28:16;5.50;;;2.15;;
20857;SDS011;10589;53.636;10.012;2023-06-14T07:30:42;4.38;;;2.08;;
20857;SDS011;10589;53.636;10.012;2023-06-14T07:33:08;3.70;;;1.92;;
20857;SDS011;10589;53.636;10.012;2023-06-14T07:35:36;5.03;;;2.03;;
20857;SDS011;10589;53.636;10.012;2023-06-14T07:38:01;5.43;;;1.90;;
20857;SDS011;10589;53.636;10.012;2023-06-14T07:40:27;5.30;;;2.00;;
20857;SDS011;10589;53.636;10.012;2023-06-14T07:42:54;3.05;;;1.90;;
20857;SDS011;10589;53.636;10.012;2023-06-14T07:45:20;2.88;;;1.70;;
20857;SDS011;10589;53.636;10.012;2023-06-14T07:47:45;4.72;;;1.85;;
20857;SDS011;10589;53.636;10.012;2023-06-14T07:50:11;4.38;;;2.05;;
20857;SDS011;10589;53.636;10.012;2023-06-14T07:52:38;2.42;;;1.85;;
20857;SDS011;10589;53.636;10.012;2023-06-14T07:55:04;6.78;;;2.55;;
20857;SDS011;10589;53.636;10.012;2023-06-14T07:57:31;3.95;;;1.83;;
20857;SDS011;10589;53.636;10.012;2023-06-14T07:59:56;4.30;;;1.60;;
20857;SDS011;10589;53.636;10.012;2023-06-14T08:02:22;5.70;;;2.00;;
20857;SDS011;10589;53.636;10.012;2023-06-14T08:04:48;3.78;;;2.10;;
20857;SDS011;10589;53.636;10.012;2023-06-14T08:07:14;6.70;;;1.50;;
20857;SDS011;10589;53.636;10.012;2023-06-14T08:09:39;4.57;;;1.98;;
20857;SDS011;10589;53.636;10.012;2023-06-14T08:12:06;4.88;;;1.77;;
20857;SDS011;10589;53.636;10.012;2023-06-14T08:14:34;3.95;;;2.08;;
20857;SDS011;10589;53.636;10.012;2023-06-14T08:17:00;5.10;;;2.40;;
20857;SDS011;10589;53.636;10.012;2023-06-14T08:19:26;5.28;;;1.98;;
20857;SDS011;10589;53.636;10.012;2023-06-14T08:21:52;5.75;;;1.95;;
20857;SDS011;10589;53.636;10.012;2023-06-14T08:24:20;7.38;;;1.98;;
20857;SDS011;10589;53.636;10.012;2023-06-14T08:26:49;8.82;;;2.25;;
20857;SDS011;10589;53.636;10.012;2023-06-14T08:29:15;5.20;;;2.30;;
20857;SDS011;10589;53.636;10.012;2023-06-14T08:31:41;5.93;;;2.08;;
20857;SDS011;10589;53.636;10.012;2023-06-14T08:34:06;2.95;;;1.70;;
20857;SDS011;10589;53.636;10.012;2023-06-14T08:36:32;7.30;;;1.90;;
20857;SDS011;10589;53.636;10.012;2023-06-14T08:38:58;4.28;;;2.10;;
20857;SDS011;10589;53.636;10.012;2023-06-14T08:41:23;6.43;;;1.95;;
20857;SDS011;10589;53.636;10.012;2023-06-14T08:43:49;4.78;;;1.90;;
20857;SDS011;10589;53.636;10.012;2023-06-14T08:46:17;6.00;;;2.08;;
20857;SDS011;10589;53.636;10.012;2023-06-14T08:48:51;3.80;;;2.15;;
20857;SDS011;10589;53.636;10.012;2023-06-14T08:51:18;4.65;;;2.30;;
20857;SDS011;10589;53.636;10.012;2023-06-14T08:53:44;6.55;;;2.50;;
20857;SDS011;10589;53.636;10.012;2023-06-14T08:56:13;6.70;;;2.25;;
20857;SDS011;10589;53.636;10.012;2023-06-14T08:58:43;3.65;;;2.10;;
20857;SDS011;10589;53.636;10.012;2023-06-14T09:01:10;4.90;;;2.33;;
20857;SDS011;10589;53.636;10.012;2023-06-14T09:03:42;6.80;;;2.70;;
20857;SDS011;10589;53.636;10.012;2023-06-14T09:06:09;7.18;;;2.22;;
20857;SDS011;10589;53.636;10.012;2023-06-14T09:08:40;4.50;;;2.38;;
20857;SDS011;10589;53.636;10.012;2023-06-14T09:11:12;3.85;;;2.28;;
20857;SDS011;10589;53.636;10.012;2023-06-14T09:13:39;4.95;;;2.20;;
20857;SDS011;10589;53.636;10.012;2023-06-14T09:16:05;7.68;;;2.15;;
20857;SDS011;10589;53.636;10.012;2023-06-14T09:18:39;9.00;;;2.20;;
20857;SDS011;10589;53.636;10.012;2023-06-14T09:21:09;5.75;;;2.20;;
20857;SDS011;10589;53.636;10.012;2023-06-14T09:23:36;4.85;;;2.35;;
20857;SDS011;10589;53.636;10.012;2023-06-14T09:26:07;5.60;;;1.95;;
20857;SDS011;10589;53.636;10.012;2023-06-14T09:28:42;4.40;;;2.50;;
20857;SDS011;10589;53.636;10.012;2023-06-14T09:31:10;6.20;;;2.40;;
20857;SDS011;10589;53.636;10.012;2023-06-14T09:33:36;9.55;;;2.38;;
20857;SDS011;10589;53.636;10.012;2023-06-14T09:36:03;5.88;;;2.40;;
20857;SDS011;10589;53.636;10.012;2023-06-14T09:38:35;4.95;;;2.08;;
20857;SDS011;10589;53.636;10.012;2023-06-14T09:41:01;6.85;;;2.50;;
20857;SDS011;10589;53.636;10.012;2023-06-14T09:43:29;7.07;;;2.70;;
20857;SDS011;10589;53.636;10.012;2023-06-14T09:45:54;5.80;;;2.25;;
20857;SDS011;10589;53.636;10.012;2023-06-14T09:48:20;8.38;;;2.53;;
20857;SDS011;10589;53.636;10.012;2023-06-14T09:50:46;2.67;;;1.60;;
20857;SDS011;10589;53.636;10.012;2023-06-14T09:53:18;5.95;;;2.30;;
20857;SDS011;10589;53.636;10.012;2023-06-14T09:55:50;5.30;;;2.17;;
20857;SDS011;10589;53.636;10.012;2023-06-14T09:58:20;3.90;;;1.90;;
20857;SDS011;10589;53.636;10.012;2023-06-14T10:00:54;4.43;;;2.17;;
20857;SDS011;10589;53.636;10.012;2023-06-14T10:03:21;3.22;;;2.20;;
20857;SDS011;10589;53.636;10.012;2023-06-14T10:05:52;5.50;;;2.33;;
20857;SDS011;10589;53.636;10.012;2023-06-14T10:08:23;4.00;;;2.45;;
20857;SDS011;10589;53.636;10.012;2023-06-14T10:10:55;4.03;;;2.67;;
20857;SDS011;10589;53.636;10.012;2023-06-14T10:13:21;7.53;;;2.25;;
20857;SDS011;10589;53.636;10.012;2023-06-14T10:23:19;3.95;;;2.40;;
20857;SDS011;10589;53.636;10.012;2023-06-14T10:25:54;7.22;;;2.10;;
20857;SDS011;10589;53.636;10.012;2023-06-14T10:28:22;7.43;;;2.88;;
20857;SDS011;10589;53.636;10.012;2023-06-14T10:33:34;8.93;;;2.45;;
20857;SDS011;10589;53.636;10.012;2023-06-14T10:36:24;8.85;;;2.33;;
20857;SDS011;10589;53.636;10.012;2023-06-14T10:41:32;4.50;;;2.20;;
20857;SDS011;10589;53.636;10.012;2023-06-14T10:46:54;5.07;;;2.17;;
20857;SDS011;10589;53.636;10.012;2023-06-14T10:49:20;4.53;;;2.40;;
20857;SDS011;10589;53.636;10.012;2023-06-14T10:52:03;4.25;;;2.10;;
20857;SDS011;10589;53.636;10.012;2023-06-14T10:54:31;6.70;;;2.50;;
20857;SDS011;10589;53.636;10.012;2023-06-14T10:56:57;4.57;;;2.63;;
20857;SDS011;10589;53.636;10.012;2023-06-14T10:59:24;5.82;;;2.13;;
20857;SDS011;10589;53.636;10.012;2023-06-14T11:02:08;6.88;;;2.30;;
20857;SDS011;10589;53.636;10.012;2023-06-14T11:04:50;5.50;;;2.22;;
20857;SDS011;10589;53.636;10.012;2023-06-14T11:07:30;5.15;;;2.08;;
20857;SDS011;10589;53.636;10.012;2023-06-14T11:12:37;4.90;;;2.20;;
20857;SDS011;10589;53.636;10.012;2023-06-14T11:15:07;3.72;;;2.28;;
20857;SDS011;10589;53.636;10.012;2023-06-14T11:17:33;4.72;;;2.15;;
20857;SDS011;10589;53.636;10.012;2023-06-14T11:20:12;11.80;;;2.22;;
20857;SDS011;10589;53.636;10.012;2023-06-14T11:22:41;4.85;;;2.40;;
20857;SDS011;10589;53.636;10.012;2023-06-14T11:25:13;6.20;;;2.17;;
20857;SDS011;10589;53.636;10.012;2023-06-14T11:27:41;6.72;;;2.25;;
20857;SDS011;10589;53.636;10.012;2023-06-14T11:30:08;6.40;;;2.40;;
20857;SDS011;10589;53.636;10.012;2023-06-14T11:32:34;5.75;;;2.10;;
20857;SDS011;10589;53.636;10.012;2023-06-14T11:35:01;3.40;;;1.83;;
20857;SDS011;10589;53.636;10.012;2023-06-14T11:37:27;5.95;;;2.30;;
20857;SDS011;10589;53.636;10.012;2023-06-14T11:39:56;5.45;;;2.05;;
20857;SDS011;10589;53.636;10.012;2023-06-14T11:42:22;5.80;;;2.17;;
20857;SDS011;10589;53.636;10.012;2023-06-14T11:44:49;10.93;;;2.50;;
20857;SDS011;10589;53.636;10.012;2023-06-14T11:47:15;10.75;;;2.40;;
20857;SDS011;10589;53.636;10.012;2023-06-14T11:49:41;7.03;;;1.80;;
20857;SDS011;10589;53.636;10.012;2023-06-14T11:52:07;4.18;;;2.35;;
20857;SDS011;10589;53.636;10.012;2023-06-14T11:54:32;5.05;;;2.08;;
20857;SDS011;10589;53.636;10.012;2023-06-14T11:56:58;4.63;;;1.88;;
20857;SDS011;10589;53.636;10.012;2023-06-14T11:59:24;3.35;;;2.25;;
20857;SDS011;10589;53.636;10.012;2023-06-14T12:01:50;11.10;;;2.08;;
20857;SDS011;10589;53.636;10.012;2023-06-14T12:04:28;4.85;;;2.53;;
20857;SDS011;10589;53.636;10.012;2023-06-14T12:06:54;8.80;;;2.03;;
20857;SDS011;10589;53.636;10.012;2023-06-14T12:09:21;7.10;;;1.95;;
20857;SDS011;10589;53.636;10.012;2023-06-14T12:11:48;5.32;;;2.33;;
20857;SDS011;10589;53.636;10.012;2023-06-14T12:14:14;4.22;;;1.88;;
20857;SDS011;10589;53.636;10.012;2023-06-14T12:16:41;7.20;;;1.90;;
20857;SDS011;10589;53.636;10.012;2023-06-14T12:19:08;7.82;;;2.05;;
20857;SDS011;10589;53.636;10.012;2023-06-14T12:21:38;4.18;;;1.90;;
20857;SDS011;10589;53.636;10.012;2023-06-14T12:24:05;5.20;;;2.13;;
20857;SDS011;10589;53.636;10.012;2023-06-14T12:26:32;6.38;;;2.30;;
20857;SDS011;10589;53.636;10.012;2023-06-14T12:28:58;4.30;;;2.10;;
20857;SDS011;10589;53.636;10.012;2023-06-14T12:31:24;9.98;;;2.17;;
20857;SDS011;10589;53.636;10.012;2023-06-14T12:33:51;4.80;;;1.98;;
20857;SDS011;10589;53.636;10.012;2023-06-14T12:36:17;3.63;;;2.15;;
20857;SDS011;10589;53.636;10.012;2023-06-14T12:38:44;7.50;;;1.95;;
20857;SDS011;10589;53.636;10.012;2023-06-14T12:41:11;9.13;;;2.40;;
20857;SDS011;10589;53.636;10.012;2023-06-14T12:43:39;7.63;;;2.25;;
20857;SDS011;10589;53.636;10.012;2023-06-14T12:46:05;4.50;;;1.92;;
20857;SDS011;10589;53.636;10.012;2023-06-14T12:48:31;10.02;;;2.20;;
20857;SDS011;10589;53.636;10.012;2023-06-14T12:50:57;6.25;;;2.10;;
20857;SDS011;10589;53.636;10.012;2023-06-14T12:53:23;5.35;;;2.00;;
20857;SDS011;10589;53.636;10.012;2023-06-14T12:55:49;8.07;;;2.10;;
20857;SDS011;10589;53.636;10.012;2023-06-14T12:58:14;5.03;;;1.80;;
20857;SDS011;10589;53.636;10.012;2023-06-14T13:00:43;6.28;;;1.92;;
20857;SDS011;10589;53.636;10.012;2023-06-14T13:03:09;4.97;;;2.00;;
20857;SDS011;10589;53.636;10.012;2023-06-14T13:05:35;7.47;;;2.08;;
20857;SDS011;10589;53.636;10.012;2023-06-14T13:08:02;4.60;;;2.00;;
20857;SDS011;10589;53.636;10.012;2023-06-14T13:10:27;3.63;;;1.73;;
20857;SDS011;10589;53.636;10.012;2023-06-14T13:12:53;8.02;;;2.00;;
20857;SDS011;10589;53.636;10.012;2023-06-14T13:15:19;8.88;;;2.00;;
20857;SDS011;10589;53.636;10.012;2023-06-14T13:17:45;6.72;;;2.45;;
20857;SDS011;10589;53.636;10.012;2023-06-14T13:20:13;5.00;;;1.70;;
20857;SDS011;10589;53.636;10.012;2023-06-14T13:22:40;3.78;;;2.10;;
20857;SDS011;10589;53.636;10.012;2023-06-14T13:25:06;10.02;;;1.95;;
20857;SDS011;10589;53.636;10.012;2023-06-14T13:27:32;2.13;;;1.90;;
20857;SDS011;10589;53.636;10.012;2023-06-14T13:29:57;6.45;;;1.90;;
20857;SDS011;10589;53.636;10.012;2023-06-14T13:32:23;3.30;;;1.77;;
20857;SDS011;10589;53.636;10.012;2023-06-14T13:34:49;5.47;;;1.80;;
20857;SDS011;10589;53.636;10.012;2023-06-14T13:37:14;5.00;;;1.75;;
20857;SDS011;10589;53.636;10.012;2023-06-14T13:39:40;4.43;;;1.80;;
20857;SDS011;10589;53.636;10.012;2023-06-14T13:42:06;5.50;;;1.88;;
20857;SDS011;10589;53.636;10.012;2023-06-14T13:44:32;5.55;;;1.80;;
20857;SDS011;10589;53.636;10.012;2023-06-14T13:46:57;4.13;;;1.50;;
20857;SDS011;10589;53.636;10.012;2023-06-14T13:49:23;5.63;;;2.10;;
20857;SDS011;10589;53.636;10.012;2023-06-14T13:51:48;3.33;;;1.60;;
20857;SDS011;10589;53.636;10.012;2023-06-14T13:54:14;7.80;;;1.75;;
20857;SDS011;10589;53.636;10.012;2023-06-14T13:56:43;3.80;;;1.83;;
20857;SDS011;10589;53.636;10.012;2023-06-14T13:59:09;5.07;;;1.77;;
20857;SDS011;10589;53.636;10.012;2023-06-14T14:01:35;8.75;;;1.67;;
20857;SDS011;10589;53.636;10.012;2023-06-14T14:04:01;5.82;;;1.50;;
20857;SDS011;10589;53.636;10.012;2023-06-14T14:06:34;6.45;;;2.20;;
20857;SDS011;10589;53.636;10.012;2023-06-14T14:09:00;6.82;;;1.90;;
20857;SDS011;10589;53.636;10.012;2023-06-14T14:11:25;8.63;;;1.70;;
20857;SDS011;10589;53.636;10.012;2023-06-14T14:13:52;5.70;;;2.10;;
20857;SDS011;10589;53.636;10.012;2023-06-14T14:16:18;7.13;;;2.05;;
20857;SDS011;10589;53.636;10.012;2023-06-14T14:18:45;6.22;;;1.92;;
20857;SDS011;10589;53.636;10.012;2023-06-14T14:21:11;4.35;;;1.88;;
20857;SDS011;10589;53.636;10.012;2023-06-14T14:23:36;5.50;;;2.08;;
20857;SDS011;10589;53.636;10.012;2023-06-14T14:26:02;5.78;;;1.80;;
20857;SDS011;10589;53.636;10.012;2023-06-14T14:28:29;3.90;;;1.80;;
20857;SDS011;10589;53.636;10.012;2023-06-14T14:30:56;5.32;;;1.63;;
20857;SDS011;10589;53.636;10.012;2023-06-14T14:33:21;2.90;;;1.60;;
20857;SDS011;10589;53.636;10.012;2023-06-14T14:35:47;2.85;;;1.65;;
20857;SDS011;10589;53.636;10.012;2023-06-14T14:38:13;3.58;;;1.58;;
20857;SDS011;10589;53.636;10.012;2023-06-14T14:40:40;4.07;;;1.80;;
20857;SDS011;10589;53.636;10.012;2023-06-14T14:43:06;2.85;;;1.70;;
20857;SDS011;10589;53.636;10.012;2023-06-14T14:45:32;5.72;;;1.95;;
20857;SDS011;10589;53.636;10.012;2023-06-14T14:47:57;3.60;;;1.67;;
20857;SDS011;10589;53.636;10.012;2023-06-14T14:50:25;3.78;;;1.85;;
20857;SDS011;10589;53.636;10.012;2023-06-14T14:52:50;4.95;;;1.85;;
20857;SDS011;10589;53.636;10.012;2023-06-14T14:55:16;5.72;;;2.00;;
20857;SDS011;10589;53.636;10.012;2023-06-14T14:57:42;4.20;;;1.90;;
20857;SDS011;10589;53.636;10.012;2023-06-14T15:00:09;6.43;;;2.00;;
20857;SDS011;10589;53.636;10.012;2023-06-14T15:02:35;18.38;;;2.40;;
20857;SDS011;10589;53.636;10.012;2023-06-14T15:05:00;4.57;;;1.98;;
20857;SDS011;10589;53.636;10.012;2023-06-14T15:07:27;6.07;;;1.75;;
20857;SDS011;10589;53.636;10.012;2023-06-14T15:09:53;7.32;;;1.73;;
20857;SDS011;10589;53.636;10.012;2023-06-14T15:12:20;4.90;;;1.63;;
20857;SDS011;10589;53.636;10.012;2023-06-14T15:14:47;6.13;;;1.75;;
20857;SDS011;10589;53.636;10.012;2023-06-14T15:17:19;3.40;;;1.55;;
20857;SDS011;10589;53.636;10.012;2023-06-14T15:19:46;7.50;;;2.10;;
20857;SDS011;10589;53.636;10.012;2023-06-14T15:22:12;4.28;;;1.88;;
20857;SDS011;10589;53.636;10.012;2023-06-14T15:24:40;8.50;;;1.63;;
20857;SDS011;10589;53.636;10.012;2023-06-14T15:27:05;6.53;;;1.90;;
20857;SDS011;10589;53.636;10.012;2023-06-14T15:29:31;10.38;;;2.15;;
20857;SDS011;10589;53.636;10.012;2023-06-14T15:31:57;4.82;;;2.05;;
20857;SDS011;10589;53.636;10.012;2023-06-14T15:34:23;8.45;;;2.20;;
20857;SDS011;10589;53.636;10.012;2023-06-14T15:36:49;7.75;;;1.63;;
20857;SDS011;10589;53.636;10.012;2023-06-14T15:39:14;5.25;;;1.80;;
20857;SDS011;10589;53.636;10.012;2023-06-14T15:41:40;9.10;;;2.25;;
20857;SDS011;10589;53.636;10.012;2023-06-14T15:44:06;8.90;;;1.85;;
20857;SDS011;10589;53.636;10.012;2023-06-14T15:46:33;4.07;;;1.70;;
20857;SDS011;10589;53.636;10.012;2023-06-14T15:48:58;8.05;;;1.67;;
20857;SDS011;10589;53.636;10.012;2023-06-14T15:51:24;7.22;;;1.70;;
20857;SDS011;10589;53.636;10.012;2023-06-14T15:53:49;13.68;;;2.60;;
20857;SDS011;10589;53.636;10.012;2023-06-14T15:56:15;5.78;;;1.70;;
20857;SDS011;10589;53.636;10.012;2023-06-14T15:58:41;4.75;;;1.80;;
20857;SDS011;10589;53.636;10.012;2023-06-14T16:01:06;4.10;;;1.50;;
20857;SDS011;10589;53.636;10.012;2023-06-14T16:03:32;5.70;;;2.05;;
20857;SDS011;10589;53.636;10.012;2023-06-14T16:05:57;2.72;;;1.50;;
20857;SDS011;10589;53.636;10.012;2023-06-14T16:08:23;17.55;;;2.70;;
20857;SDS011;10589;53.636;10.012;2023-06-14T16:10:48;4.40;;;1.73;;
20857;SDS011;10589;53.636;10.012;2023-06-14T16:13:14;4.15;;;1.55;;
20857;SDS011;10589;53.636;10.012;2023-06-14T16:15:39;14.40;;;2.53;;
20857;SDS011;10589;53.636;10.012;2023-06-14T16:18:05;3.72;;;1.63;;
20857;SDS011;10589;53.636;10.012;2023-06-14T16:20:30;3.92;;;1.65;;
20857;SDS011;10589;53.636;10.012;2023-06-14T16:22:56;3.03;;;1.60;;
20857;SDS011;10589;53.636;10.012;2023-06-14T16:25:22;4.97;;;1.80;;
20857;SDS011;10589;53.636;10.012;2023-06-14T16:27:47;3.72;;;1.73;;
20857;SDS011;10589;53.636;10.012;2023-06-14T16:30:13;9.27;;;1.88;;
20857;SDS011;10589;53.636;10.012;2023-06-14T16:32:38;3.80;;;1.55;;
20857;SDS011;10589;53.636;10.012;2023-06-14T16:35:05;3.63;;;1.60;;
20857;SDS011;10589;53.636;10.012;2023-06-14T16:37:31;5.35;;;1.50;;
20857;SDS011;10589;53.636;10.012;2023-06-14T16:39:56;8.77;;;1.67;;
20857;SDS011;10589;53.636;10.012;2023-06-14T16:42:22;3.88;;;1.63;;
20857;SDS011;10589;53.636;10.012;2023-06-14T16:44:48;6.18;;;1.75;;
20857;SDS011;10589;53.636;10.012;2023-06-14T16:47:14;3.65;;;1.70;;
20857;SDS011;10589;53.636;10.012;2023-06-14T16:49:40;21.85;;;2.78;;
20857;SDS011;10589;53.636;10.012;2023-06-14T16:52:05;11.02;;;2.30;;
20857;SDS011;10589;53.636;10.012;2023-06-14T16:54:31;5.38;;;1.70;;
20857;SDS011;10589;53.636;10.012;2023-06-14T16:56:57;5.35;;;1.52;;
20857;SDS011;10589;53.636;10.012;2023-06-14T16:59:22;5.70;;;1.65;;
20857;SDS011;10589;53.636;10.012;2023-06-14T17:01:51;5.22;;;1.80;;
20857;SDS011;10589;53.636;10.012;2023-06-14T17:04:17;12.65;;;1.92;;
20857;SDS011;10589;53.636;10.012;2023-06-14T17:06:43;8.15;;;1.80;;
20857;SDS011;10589;53.636;10.012;2023-06-14T17:09:08;5.47;;;1.88;;
20857;SDS011;10589;53.636;10.012;2023-06-14T17:11:35;4.03;;;1.90;;
20857;SDS011;10589;53.636;10.012;2023-06-14T17:14:00;5.32;;;1.88;;
20857;SDS011;10589;53.636;10.012;2023-06-14T17:16:26;5.18;;;1.83;;
20857;SDS011;10589;53.636;10.012;2023-06-14T17:18:52;3.72;;;1.77;;
20857;SDS011;10589;53.636;10.012;2023-06-14T17:21:18;3.00;;;1.75;;
20857;SDS011;10589;53.636;10.012;2023-06-14T17:23:44;8.45;;;2.05;;
20857;SDS011;10589;53.636;10.012;2023-06-14T17:26:09;8.02;;;1.90;;
20857;SDS011;10589;53.636;10.012;2023-06-14T17:28:35;5.13;;;1.90;;
20857;SDS011;10589;53.636;10.012;2023-06-14T17:31:01;4.43;;;1.75;;
20857;SDS011;10589;53.636;10.012;2023-06-14T17:33:27;12.80;;;2.03;;
20857;SDS011;10589;53.636;10.012;2023-06-14T17:35:52;6.45;;;1.83;;
20857;SDS011;10589;53.636;10.012;2023-06-14T17:38:18;3.38;;;1.83;;
20857;SDS011;10589;53.636;10.012;2023-06-14T17:40:43;3.28;;;1.70;;
20857;SDS011;10589;53.636;10.012;2023-06-14T17:43:09;4.90;;;1.88;;
20857;SDS011;10589;53.636;10.012;2023-06-14T17:45:35;3.33;;;1.73;;
20857;SDS011;10589;53.636;10.012;2023-06-14T17:48:01;7.50;;;1.73;;
20857;SDS011;10589;53.636;10.012;2023-06-14T17:50:27;3.25;;;1.40;;
20857;SDS011;10589;53.636;10.012;2023-06-14T17:52:52;4.38;;;1.45;;
20857;SDS011;10589;53.636;10.012;2023-06-14T17:55:18;4.63;;;1.67;;
20857;SDS011;10589;53.636;10.012;2023-06-14T17:57:44;3.75;;;1.40;;
20857;SDS011;10589;53.636;10.012;2023-06-14T18:00:09;2.65;;;1.52;;
20857;SDS011;10589;53.636;10.012;2023-06-14T18:02:35;8.68;;;1.70;;
20857;SDS011;10589;53.636;10.012;2023-06-14T18:05:01;5.05;;;1.77;;
20857;SDS011;10589;53.636;10.012;2023-06-14T18:07:27;4.50;;;1.52;;
20857;SDS011;10589;53.636;10.012;2023-06-14T18:09:53;9.18;;;1.50;;
20857;SDS011;10589;53.636;10.012;2023-06-14T18:12:18;4.57;;;1.58;;
20857;SDS011;10589;53.636;10.012;2023-06-14T18:14:44;2.92;;;1.48;;
20857;SDS011;10589;53.636;10.012;2023-06-14T18:17:09;3.65;;;1.25;;
20857;SDS011;10589;53.636;10.012;2023-06-14T18:19:35;4.90;;;1.60;;
20857;SDS011;10589;53.636;10.012;2023-06-14T18:22:02;3.90;;;1.45;;
20857;SDS011;10589;53.636;10.012;2023-06-14T18:24:29;5.65;;;1.70;;
20857;SDS011;10589;53.636;10.012;2023-06-14T18:26:55;5.00;;;1.55;;
20857;SDS011;10589;53.636;10.012;2023-06-14T18:29:21;4.03;;;1.50;;
20857;SDS011;10589;53.636;10.012;2023-06-14T18:31:46;3.42;;;1.40;;
20857;SDS011;10589;53.636;10.012;2023-06-14T18:34:12;5.60;;;1.80;;